createdAt,value
2023-02-13T00:00:47.430Z,18.70
2023-02-13T00:03:15.113Z,20.90
2023-02-13T00:05:42.575Z,18.13
2023-02-13T00:10:37.684Z,18.52
2023-02-13T00:13:05.299Z,19.05
2023-02-13T00:15:33.790Z,18.70
2023-02-13T00:18:02.722Z,16.48
2023-02-13T00:20:30.303Z,19.10
2023-02-13T00:22:59.351Z,19.40
2023-02-13T00:25:27.229Z,17.08
2023-02-13T00:27:54.935Z,17.02
2023-02-13T00:30:23.192Z,18.00
2023-02-13T00:32:51.964Z,18.10
2023-02-13T00:35:19.463Z,18.23
2023-02-13T00:42:41.434Z,19.45
2023-02-13T00:47:36.812Z,18.80
2023-02-13T00:50:04.797Z,20.48
2023-02-13T00:52:32.328Z,19.23
2023-02-13T00:54:59.997Z,19.90
2023-02-13T00:57:27.569Z,18.95
2023-02-13T00:59:55.076Z,20.83
2023-02-13T01:04:49.895Z,19.15
2023-02-13T01:07:19.038Z,19.70
2023-02-13T01:12:13.747Z,18.92
2023-02-13T01:14:42.714Z,17.00
2023-02-13T01:17:10.969Z,16.33
2023-02-13T01:22:09.045Z,21.45
2023-02-13T01:24:36.540Z,18.30
2023-02-13T01:29:31.674Z,18.20
2023-02-13T01:31:59.364Z,19.83
2023-02-13T01:34:29.266Z,17.80
2023-02-13T01:36:56.798Z,20.05
2023-02-13T01:39:26.264Z,19.88
2023-02-13T01:41:53.773Z,20.33
2023-02-13T01:44:56.358Z,19.63
2023-02-13T01:47:41.313Z,20.92
2023-02-13T01:50:23.154Z,20.98
2023-02-13T01:52:57.793Z,17.55
2023-02-13T01:55:27.884Z,18.67
2023-02-13T01:58:03.162Z,19.73
2023-02-13T02:00:31.247Z,20.85
2023-02-13T02:03:07.312Z,22.83
2023-02-13T02:05:36.577Z,18.40
2023-02-13T02:08:08.966Z,18.02
2023-02-13T02:10:38.144Z,20.77
2023-02-13T02:13:21.086Z,19.27
2023-02-13T02:15:50.387Z,20.60
2023-02-13T02:18:24.219Z,20.50
2023-02-13T02:21:36.973Z,19.30
2023-02-13T02:24:32.333Z,20.08
2023-02-13T02:27:10.602Z,20.58
2023-02-13T02:30:12.373Z,19.13
2023-02-13T02:32:55.314Z,23.75
2023-02-13T02:35:42.115Z,19.23
2023-02-13T02:38:46.128Z,20.85
2023-02-13T02:41:42.983Z,18.73
2023-02-13T02:44:28.804Z,20.08
2023-02-13T02:47:17.447Z,21.70
2023-02-13T02:50:00.423Z,20.85
2023-02-13T02:52:53.483Z,23.40
2023-02-13T02:55:40.133Z,20.88
2023-02-13T02:58:36.675Z,22.15
2023-02-13T03:01:26.879Z,19.33
2023-02-13T03:04:16.095Z,18.40
2023-02-13T03:06:53.088Z,19.15
2023-02-13T03:09:54.951Z,24.08
2023-02-13T03:12:45.624Z,19.73
2023-02-13T03:15:13.902Z,17.95
2023-02-13T03:21:11.364Z,19.92
2023-02-13T03:24:00.367Z,19.58
2023-02-13T03:26:50.888Z,20.33
2023-02-13T03:30:04.479Z,18.45
2023-02-13T03:32:58.903Z,22.48
2023-02-13T03:35:55.976Z,22.65
2023-02-13T03:38:27.600Z,20.55
2023-02-13T03:41:19.770Z,19.33
2023-02-13T03:44:12.322Z,22.38
2023-02-13T03:46:45.798Z,21.58
2023-02-13T03:50:02.975Z,20.45
2023-02-13T03:52:46.913Z,21.52
2023-02-13T03:55:53.297Z,20.02
2023-02-13T03:58:50.225Z,20.65
2023-02-13T04:03:56.601Z,21.00
2023-02-13T04:06:35.744Z,18.63
2023-02-13T04:09:03.311Z,18.52
2023-02-13T04:14:49.854Z,21.45
2023-02-13T04:17:26.359Z,20.48
2023-02-13T04:19:54.828Z,20.42
2023-02-13T04:22:22.187Z,21.17
2023-02-13T04:27:17.999Z,19.58
2023-02-13T04:29:45.631Z,18.98
2023-02-13T04:32:14.333Z,18.40
2023-02-13T04:34:44.372Z,20.80
2023-02-13T04:37:11.746Z,22.35
2023-02-13T04:39:39.195Z,19.23
2023-02-13T04:42:06.735Z,21.02
2023-02-13T04:44:34.202Z,21.23
2023-02-13T04:47:01.597Z,23.08
2023-02-13T04:49:29.068Z,20.50
2023-02-13T04:51:56.457Z,23.65
2023-02-13T04:56:51.141Z,18.52
2023-02-13T05:04:16.389Z,21.58
2023-02-13T05:06:44.050Z,22.17
2023-02-13T05:11:38.798Z,21.02
2023-02-13T05:24:13.618Z,21.80
2023-02-13T05:29:19.463Z,20.45
2023-02-13T05:31:48.454Z,22.70
2023-02-13T05:34:16.280Z,21.35
2023-02-13T05:36:43.797Z,20.83
2023-02-13T05:46:34.040Z,19.85
2023-02-13T05:49:03.182Z,20.58
2023-02-13T05:51:32.521Z,23.10
2023-02-13T05:54:00.119Z,21.27
2023-02-13T05:56:27.801Z,21.73
2023-02-13T05:58:56.300Z,20.52
2023-02-13T06:01:24.963Z,19.63
2023-02-13T06:03:52.461Z,21.92
2023-02-13T06:06:20.128Z,22.52
2023-02-13T06:08:47.510Z,22.85
2023-02-13T06:16:11.266Z,22.75
2023-02-13T06:18:39.402Z,22.30
2023-02-13T06:21:07.390Z,22.95
2023-02-13T06:23:34.832Z,23.05
2023-02-13T06:28:34.025Z,21.15
2023-02-13T06:31:02.184Z,23.60
2023-02-13T06:33:29.952Z,24.33
2023-02-13T06:40:52.057Z,21.45
2023-02-13T06:45:47.357Z,24.15
2023-02-13T06:48:15.183Z,22.77
2023-02-13T06:50:42.697Z,24.67
2023-02-13T06:53:10.406Z,25.80
2023-02-13T06:55:39.632Z,24.73
2023-02-13T06:58:07.307Z,25.73
2023-02-13T07:03:04.622Z,26.35
2023-02-13T07:05:33.089Z,26.65
2023-02-13T07:08:00.595Z,24.55
2023-02-13T07:15:35.449Z,24.77
2023-02-13T07:18:03.534Z,25.98
2023-02-13T07:20:31.149Z,27.42
2023-02-13T07:25:30.089Z,26.02
2023-02-13T07:28:07.379Z,25.92
2023-02-13T07:30:36.330Z,31.15
2023-02-13T07:33:05.046Z,26.50
2023-02-13T07:35:33.297Z,29.58
2023-02-13T07:38:01.027Z,31.08
2023-02-13T07:40:28.726Z,24.58
2023-02-13T07:42:57.115Z,30.48
2023-02-13T07:45:24.597Z,23.65
2023-02-13T07:50:20.339Z,26.40
2023-02-13T07:52:55.683Z,26.73
2023-02-13T07:55:23.385Z,27.13
2023-02-13T07:57:51.663Z,30.80
2023-02-13T08:00:20.243Z,28.45
2023-02-13T08:02:48.193Z,26.27
2023-02-13T08:05:15.815Z,29.92
2023-02-13T08:10:31.644Z,29.02
2023-02-13T08:12:59.584Z,27.05
2023-02-13T08:15:27.436Z,31.00
2023-02-13T08:17:54.965Z,32.00
2023-02-13T08:22:50.106Z,28.67
2023-02-13T08:25:18.986Z,29.05
2023-02-13T08:27:47.362Z,25.65
2023-02-13T08:30:17.764Z,28.80
2023-02-13T08:32:54.526Z,32.53
2023-02-13T08:35:26.713Z,28.42
2023-02-13T08:37:54.406Z,26.60
2023-02-13T08:42:52.866Z,27.92
2023-02-13T08:47:47.941Z,28.58
2023-02-13T08:50:15.444Z,27.98
2023-02-13T08:52:43.172Z,29.77
2023-02-13T08:55:10.565Z,27.55
2023-02-13T09:02:33.747Z,28.08
2023-02-13T09:05:01.314Z,30.85
2023-02-13T09:07:28.752Z,30.90
2023-02-13T09:09:56.358Z,27.50
2023-02-13T09:12:23.947Z,28.23
2023-02-13T09:17:19.886Z,29.08
2023-02-13T09:22:17.361Z,27.13
2023-02-13T09:24:44.915Z,29.58
2023-02-13T09:27:12.592Z,31.42
2023-02-13T09:29:40.135Z,29.67
2023-02-13T09:32:07.936Z,32.03
2023-02-13T09:34:35.380Z,28.83
2023-02-13T09:41:58.950Z,30.05
2023-02-13T09:44:42.234Z,30.77
2023-02-13T09:47:19.013Z,26.77
2023-02-13T09:49:57.276Z,31.42
2023-02-13T09:52:28.537Z,28.80
2023-02-13T09:54:56.185Z,28.52
2023-02-13T10:00:20.908Z,30.17
2023-02-13T10:02:57.823Z,29.35
2023-02-13T10:05:46.929Z,28.25
2023-02-13T10:08:23.500Z,28.33
2023-02-13T10:11:07.902Z,26.13
2023-02-13T10:14:08.666Z,28.80
2023-02-13T10:16:40.752Z,28.98
2023-02-13T10:19:41.469Z,30.70
2023-02-13T10:22:18.353Z,27.83
2023-02-13T10:25:08.882Z,27.63
2023-02-13T10:27:41.751Z,31.65
2023-02-13T10:30:18.460Z,28.95
2023-02-13T10:33:19.197Z,26.88
2023-02-13T10:36:02.760Z,29.58
2023-02-13T10:38:34.626Z,30.77
2023-02-13T10:41:47.516Z,25.45
2023-02-13T10:44:34.454Z,24.77
2023-02-13T10:49:38.145Z,28.50
2023-02-13T10:52:19.173Z,29.13
2023-02-13T10:54:57.505Z,28.90
2023-02-13T10:57:47.896Z,27.48
2023-02-13T11:00:20.974Z,28.05
2023-02-13T11:02:48.754Z,27.38
2023-02-13T11:05:25.582Z,28.20
2023-02-13T11:07:53.228Z,32.28
2023-02-13T11:10:26.124Z,28.40
2023-02-13T11:12:54.082Z,27.38
2023-02-13T11:15:26.136Z,30.70
2023-02-13T11:18:03.957Z,27.23
2023-02-13T11:20:41.349Z,28.63
2023-02-13T11:23:18.421Z,27.08
2023-02-13T11:26:02.912Z,28.02
2023-02-13T11:28:34.911Z,27.52
2023-02-13T11:31:24.495Z,28.73
2023-02-13T11:33:52.890Z,28.92
2023-02-13T11:36:34.314Z,26.52
2023-02-13T11:39:19.935Z,26.23
2023-02-13T11:41:50.958Z,27.55
2023-02-13T11:44:30.079Z,26.10
2023-02-13T11:47:00.648Z,26.70
2023-02-13T11:49:30.626Z,24.00
2023-02-13T11:52:01.820Z,27.30
2023-02-13T11:54:46.021Z,27.65
2023-02-13T11:57:21.089Z,25.52
2023-02-13T11:59:51.873Z,26.40
2023-02-13T12:02:50.029Z,26.17
2023-02-13T12:05:21.009Z,27.35
2023-02-13T12:07:50.836Z,26.27
2023-02-13T12:10:23.086Z,26.20
2023-02-13T12:12:56.723Z,25.95
2023-02-13T12:15:33.347Z,23.55
2023-02-13T12:18:31.229Z,25.52
2023-02-13T12:21:01.808Z,27.33
2023-02-13T12:23:47.268Z,24.45
2023-02-13T12:26:17.700Z,24.35
2023-02-13T12:29:12.824Z,26.25
2023-02-13T12:32:24.660Z,23.80
2023-02-13T12:35:27.662Z,25.38
2023-02-13T12:38:18.664Z,24.35
2023-02-13T12:41:05.393Z,25.02
2023-02-13T12:43:51.810Z,22.85
2023-02-13T12:46:31.476Z,22.25
2023-02-13T12:49:18.166Z,24.67
2023-02-13T12:51:53.396Z,25.52
2023-02-13T12:54:30.711Z,23.60
2023-02-13T12:57:20.123Z,22.10
2023-02-13T12:59:59.495Z,22.63
2023-02-13T13:03:10.322Z,21.42
2023-02-13T13:06:12.900Z,21.95
2023-02-13T13:09:22.006Z,21.75
2023-02-13T13:12:20.514Z,24.33
2023-02-13T13:15:09.771Z,21.65
2023-02-13T13:18:05.127Z,22.00
2023-02-13T13:20:37.695Z,25.67
2023-02-13T13:23:30.747Z,24.40
2023-02-13T13:25:58.282Z,22.23
2023-02-13T13:28:32.941Z,22.08
2023-02-13T13:31:02.117Z,22.80
2023-02-13T13:33:30.964Z,24.15
2023-02-13T13:36:01.118Z,21.77
2023-02-13T13:38:39.427Z,24.15
2023-02-13T13:41:31.965Z,26.80
2023-02-13T13:44:22.252Z,22.48
2023-02-13T13:47:03.037Z,24.27
2023-02-13T13:49:44.837Z,20.35
2023-02-13T13:52:20.408Z,23.38
2023-02-13T13:54:57.233Z,20.25
2023-02-13T13:57:26.044Z,23.35
2023-02-13T14:00:00.116Z,22.48
2023-02-13T14:02:48.206Z,23.95
2023-02-13T14:05:34.118Z,25.65
2023-02-13T14:08:04.345Z,22.05
2023-02-13T14:10:31.820Z,23.67
2023-02-13T14:13:02.672Z,22.17
2023-02-13T14:15:44.825Z,23.83
2023-02-13T14:18:22.934Z,25.13
2023-02-13T14:20:54.025Z,24.63
2023-02-13T14:23:30.671Z,25.70
2023-02-13T14:26:13.517Z,24.05
2023-02-13T14:29:00.026Z,22.40
2023-02-13T14:31:34.290Z,23.38
2023-02-13T14:34:23.163Z,22.92
2023-02-13T14:37:07.326Z,24.67
2023-02-13T14:39:36.130Z,23.27
2023-02-13T14:42:21.509Z,25.70
2023-02-13T14:44:51.918Z,24.20
2023-02-13T14:47:39.776Z,25.23
2023-02-13T14:50:09.319Z,25.25
2023-02-13T14:52:43.110Z,30.70
2023-02-13T14:55:34.039Z,24.90
2023-02-13T14:58:14.731Z,25.13
2023-02-13T15:00:51.549Z,24.92
2023-02-13T15:03:41.177Z,24.48
2023-02-13T15:06:21.689Z,24.05
2023-02-13T15:08:52.074Z,22.70
2023-02-13T15:11:43.017Z,23.35
2023-02-13T15:14:23.627Z,24.75
2023-02-13T15:16:58.466Z,24.23
2023-02-13T15:19:26.754Z,28.27
2023-02-13T15:22:00.733Z,23.35
2023-02-13T15:24:46.322Z,26.27
2023-02-13T15:27:26.658Z,23.20
2023-02-13T15:30:25.213Z,21.42
2023-02-13T15:33:15.851Z,25.85
2023-02-13T15:35:43.574Z,23.30
2023-02-13T15:38:31.721Z,22.73
2023-02-13T15:41:05.143Z,23.48
2023-02-13T15:43:40.509Z,21.10
2023-02-13T15:46:38.867Z,22.65
2023-02-13T15:49:10.592Z,22.92
2023-02-13T15:51:38.770Z,25.60
2023-02-13T15:54:22.144Z,26.88
2023-02-13T15:56:52.954Z,25.60
2023-02-13T15:59:21.288Z,23.77
2023-02-13T16:01:50.903Z,22.90
2023-02-13T16:04:20.659Z,21.83
2023-02-13T16:06:52.597Z,20.83
2023-02-13T16:09:38.178Z,23.77
2023-02-13T16:12:28.474Z,21.75
2023-02-13T16:15:05.863Z,21.20
2023-02-13T16:17:38.558Z,20.05
2023-02-13T16:20:12.071Z,22.58
2023-02-13T16:23:14.028Z,25.58
2023-02-13T16:25:41.842Z,20.35
2023-02-13T16:28:25.751Z,21.67
2023-02-13T16:30:53.244Z,26.88
2023-02-13T16:33:30.985Z,21.58
2023-02-13T16:36:29.273Z,22.92
2023-02-13T16:38:56.903Z,21.92
2023-02-13T16:41:29.879Z,23.20
2023-02-13T16:44:23.185Z,24.50
2023-02-13T16:47:24.374Z,23.40
2023-02-13T16:49:56.596Z,22.85
2023-02-13T16:52:26.961Z,24.33
2023-02-13T16:55:03.514Z,21.55
2023-02-13T16:57:34.351Z,26.05
2023-02-13T17:00:24.465Z,22.25
2023-02-13T17:02:53.023Z,28.38
2023-02-13T17:05:22.664Z,23.65
2023-02-13T17:07:53.326Z,23.88
2023-02-13T17:10:44.786Z,22.45
2023-02-13T17:13:19.186Z,24.02
2023-02-13T17:15:48.615Z,22.77
2023-02-13T17:18:16.169Z,25.67
2023-02-13T17:20:45.343Z,24.58
2023-02-13T17:23:18.843Z,27.85
2023-02-13T17:25:48.101Z,28.75
2023-02-13T17:28:22.476Z,26.38
2023-02-13T17:30:56.444Z,26.40
2023-02-13T17:33:27.661Z,24.52
2023-02-13T17:35:55.551Z,26.25
2023-02-13T17:38:23.598Z,26.08
2023-02-13T17:40:52.221Z,30.17
2023-02-13T17:43:20.899Z,29.23
2023-02-13T17:45:49.880Z,31.77
2023-02-13T17:48:17.962Z,31.70
2023-02-13T17:50:51.149Z,33.03
2023-02-13T17:53:27.836Z,29.67
2023-02-13T17:55:55.661Z,28.30
2023-02-13T17:58:23.312Z,31.30
2023-02-13T18:00:51.087Z,29.35
2023-02-13T18:03:18.543Z,31.27
2023-02-13T18:05:48.857Z,32.50
2023-02-13T18:08:17.157Z,29.33
2023-02-13T18:10:44.723Z,30.55
2023-02-13T18:13:12.371Z,31.25
2023-02-13T18:15:43.119Z,34.78
2023-02-13T18:18:12.005Z,31.58
2023-02-13T18:20:39.499Z,32.50
2023-02-13T18:23:07.386Z,33.47
2023-02-13T18:25:35.572Z,34.70
2023-02-13T18:28:03.312Z,34.65
2023-02-13T18:30:30.813Z,37.00
2023-02-13T18:32:59.320Z,36.63
2023-02-13T18:35:27.194Z,33.00
2023-02-13T18:37:54.692Z,34.67
2023-02-13T18:42:51.241Z,32.78
2023-02-13T18:45:18.998Z,36.08
2023-02-13T18:47:46.559Z,35.22
2023-02-13T18:50:14.106Z,38.38
2023-02-13T18:52:41.765Z,35.95
2023-02-13T18:55:09.482Z,35.30
2023-02-13T18:57:36.942Z,35.58
2023-02-13T19:02:33.507Z,37.17
2023-02-13T19:05:03.642Z,37.22
2023-02-13T19:07:31.219Z,36.13
2023-02-13T19:09:58.819Z,36.50
2023-02-13T19:12:26.557Z,35.08
2023-02-13T19:14:54.185Z,35.20
2023-02-13T19:17:21.820Z,36.50
2023-02-13T19:19:49.254Z,41.90
2023-02-13T19:22:16.846Z,40.65
2023-02-13T19:24:44.482Z,38.72
2023-02-13T19:27:12.146Z,39.47
2023-02-13T19:29:39.558Z,39.30
2023-02-13T19:32:07.032Z,37.10
2023-02-13T19:37:02.215Z,38.10
2023-02-13T19:41:57.249Z,39.45
2023-02-13T19:44:24.710Z,41.08
2023-02-13T19:46:52.239Z,40.95
2023-02-13T19:49:22.404Z,42.20
2023-02-13T19:51:49.964Z,41.15
2023-02-13T19:54:17.341Z,41.45
2023-02-13T19:56:45.062Z,41.88
2023-02-13T19:59:13.637Z,43.08
2023-02-13T20:01:42.922Z,42.33
2023-02-13T20:04:11.872Z,41.97
2023-02-13T20:06:39.658Z,41.90
2023-02-13T20:09:10.013Z,41.60
2023-02-13T20:11:39.528Z,42.88
2023-02-13T20:14:11.606Z,44.70
2023-02-13T20:16:39.407Z,42.65
2023-02-13T20:19:09.664Z,41.88
2023-02-13T20:21:38.056Z,43.78
2023-02-13T20:24:06.051Z,43.67
2023-02-13T20:26:34.706Z,47.33
2023-02-13T20:29:02.426Z,42.70
2023-02-13T20:31:30.727Z,43.28
2023-02-13T20:33:58.663Z,42.53
2023-02-13T20:36:28.783Z,44.90
2023-02-13T20:38:59.665Z,47.55
2023-02-13T20:41:29.769Z,45.17
2023-02-13T20:43:59.398Z,44.20
2023-02-13T20:46:29.315Z,47.05
2023-02-13T20:48:56.782Z,45.58
2023-02-13T20:51:24.401Z,43.55
2023-02-13T20:53:52.031Z,45.05
2023-02-13T20:56:23.544Z,43.28
2023-02-13T20:58:52.536Z,49.58
2023-02-13T21:01:24.430Z,44.58
2023-02-13T21:03:54.617Z,47.55
2023-02-13T21:06:30.717Z,44.03
2023-02-13T21:08:58.425Z,45.42
2023-02-13T21:11:28.307Z,44.95
2023-02-13T21:13:57.160Z,42.60
2023-02-13T21:16:27.930Z,44.92
2023-02-13T21:18:58.685Z,42.47
2023-02-13T21:21:29.595Z,41.03
2023-02-13T21:23:59.677Z,41.10
2023-02-13T21:26:27.725Z,42.90
2023-02-13T21:28:55.752Z,44.95
2023-02-13T21:31:30.523Z,45.13
2023-02-13T21:34:00.265Z,43.17
2023-02-13T21:36:27.725Z,45.00
2023-02-13T21:41:23.866Z,43.03
2023-02-13T21:43:51.971Z,44.88
2023-02-13T21:46:21.418Z,45.85
2023-02-13T21:48:53.594Z,39.95
2023-02-13T21:51:22.343Z,39.30
2023-02-13T21:53:50.455Z,42.45
2023-02-13T21:56:29.196Z,43.25
2023-02-13T21:58:57.586Z,40.92
2023-02-13T22:01:30.918Z,36.83
2023-02-13T22:04:09.556Z,40.35
2023-02-13T22:06:39.850Z,40.65
2023-02-13T22:09:17.653Z,40.42
2023-02-13T22:11:45.349Z,40.03
2023-02-13T22:14:17.018Z,38.53
2023-02-13T22:16:46.599Z,41.60
2023-02-13T22:19:16.155Z,41.63
2023-02-13T22:21:44.683Z,42.03
2023-02-13T22:24:13.174Z,39.28
2023-02-13T22:26:43.122Z,41.30
2023-02-13T22:29:13.189Z,45.70
2023-02-13T22:31:41.194Z,41.38
2023-02-13T22:34:12.326Z,46.83
2023-02-13T22:36:40.317Z,47.83
2023-02-13T22:39:09.681Z,42.65
2023-02-13T22:41:37.372Z,52.20
2023-02-13T22:44:05.041Z,46.92
2023-02-13T22:46:33.773Z,47.05
2023-02-13T22:49:01.446Z,47.50
2023-02-13T22:51:34.253Z,46.58
2023-02-13T22:54:02.346Z,46.92
2023-02-13T22:56:31.207Z,51.53
2023-02-13T22:58:59.332Z,45.58
2023-02-13T23:01:28.325Z,46.47
2023-02-13T23:03:56.469Z,45.45
2023-02-13T23:06:24.668Z,48.35
2023-02-13T23:08:53.757Z,46.47
2023-02-13T23:11:42.942Z,47.90
2023-02-13T23:14:11.215Z,47.92
2023-02-13T23:16:59.079Z,47.80
2023-02-13T23:19:27.730Z,43.38
2023-02-13T23:21:55.833Z,48.05
2023-02-13T23:24:24.083Z,42.58
2023-02-13T23:26:51.552Z,45.92
2023-02-13T23:29:19.152Z,45.97
2023-02-13T23:31:46.693Z,45.38
2023-02-13T23:34:14.279Z,47.97
2023-02-13T23:39:09.122Z,43.50
2023-02-13T23:44:03.705Z,45.25
2023-02-13T23:53:56.277Z,43.67
2023-02-13T23:56:25.345Z,48.20
2023-02-13T23:58:53.239Z,46.63
